sensor_id;sensor_type;location;lat;lon;timestamp;P1;durP1;ratioP1;P2;durP2;ratioP2
17773;SDS011;9011;33.236;-97.118;2022-08-19T00:02:01;2.78;;;2.58;;
17773;SDS011;9011;33.236;-97.118;2022-08-19T00:04:31;2.60;;;2.40;;
17773;SDS011;9011;33.236;-97.118;2022-08-19T00:07:02;2.92;;;2.10;;
17773;SDS011;9011;33.236;-97.118;2022-08-19T00:09:31;2.67;;;2.47;;
17773;SDS011;9011;33.236;-97.118;2022-08-19T00:12:00;2.78;;;2.40;;
17773;SDS011;9011;33.236;-97.118;2022-08-19T00:14:30;2.20;;;2.05;;
17773;SDS011;9011;33.236;-97.118;2022-08-19T00:16:58;2.45;;;2.25;;
17773;SDS011;9011;33.236;-97.118;2022-08-19T00:19:28;2.50;;;2.20;;
17773;SDS011;9011;33.236;-97.118;2022-08-19T00:21:56;3.35;;;2.08;;
17773;SDS011;9011;33.236;-97.118;2022-08-19T00:24:25;2.20;;;2.00;;
17773;SDS011;9011;33.236;-97.118;2022-08-19T00:26:54;3.05;;;2.28;;
17773;SDS011;9011;33.236;-97.118;2022-08-19T00:29:23;2.10;;;1.90;;
17773;SDS011;9011;33.236;-97.118;2022-08-19T00:31:53;2.97;;;2.22;;
17773;SDS011;9011;33.236;-97.118;2022-08-19T00:34:23;2.15;;;1.95;;
17773;SDS011;9011;33.236;-97.118;2022-08-19T00:36:54;2.20;;;2.00;;
17773;SDS011;9011;33.236;-97.118;2022-08-19T00:39:23;2.05;;;1.95;;
17773;SDS011;9011;33.236;-97.118;2022-08-19T00:41:51;2.25;;;2.05;;
17773;SDS011;9011;33.236;-97.118;2022-08-19T00:44:21;3.00;;;2.45;;
17773;SDS011;9011;33.236;-97.118;2022-08-19T00:46:51;2.10;;;2.00;;
17773;SDS011;9011;33.236;-97.118;2022-08-19T00:49:24;1.90;;;1.80;;
17773;SDS011;9011;33.236;-97.118;2022-08-19T00:51:57;2.22;;;1.90;;
17773;SDS011;9011;33.236;-97.118;2022-08-19T00:54:28;2.97;;;2.60;;
17773;SDS011;9011;33.236;-97.118;2022-08-19T00:56:58;2.63;;;2.20;;
17773;SDS011;9011;33.236;-97.118;2022-08-19T00:59:28;2.25;;;2.05;;
17773;SDS011;9011;33.236;-97.118;2022-08-19T01:01:58;2.83;;;2.58;;
17773;SDS011;9011;33.236;-97.118;2022-08-19T01:04:27;4.65;;;2.90;;
17773;SDS011;9011;33.236;-97.118;2022-08-19T01:06:55;5.03;;;3.40;;
17773;SDS011;9011;33.236;-97.118;2022-08-19T01:09:24;3.83;;;3.33;;
17773;SDS011;9011;33.236;-97.118;2022-08-19T01:11:53;3.80;;;3.38;;
17773;SDS011;9011;33.236;-97.118;2022-08-19T01:14:26;6.20;;;3.45;;
17773;SDS011;9011;33.236;-97.118;2022-08-19T01:16:54;3.88;;;3.15;;
17773;SDS011;9011;33.236;-97.118;2022-08-19T01:19:25;4.03;;;3.72;;
17773;SDS011;9011;33.236;-97.118;2022-08-19T01:21:58;3.70;;;3.40;;
17773;SDS011;9011;33.236;-97.118;2022-08-19T01:24:34;4.50;;;3.47;;
17773;SDS011;9011;33.236;-97.118;2022-08-19T01:27:03;3.70;;;3.30;;
17773;SDS011;9011;33.236;-97.118;2022-08-19T01:29:31;4.35;;;3.72;;
17773;SDS011;9011;33.236;-97.118;2022-08-19T01:32:00;4.05;;;3.75;;
17773;SDS011;9011;33.236;-97.118;2022-08-19T01:34:29;4.00;;;3.70;;
17773;SDS011;9011;33.236;-97.118;2022-08-19T01:36:59;4.47;;;3.38;;
17773;SDS011;9011;33.236;-97.118;2022-08-19T01:39:35;4.15;;;3.80;;
17773;SDS011;9011;33.236;-97.118;2022-08-19T01:42:04;3.90;;;3.42;;
17773;SDS011;9011;33.236;-97.118;2022-08-19T01:44:36;3.50;;;3.20;;
17773;SDS011;9011;33.236;-97.118;2022-08-19T01:47:05;4.13;;;3.80;;
17773;SDS011;9011;33.236;-97.118;2022-08-19T01:49:35;3.72;;;3.33;;
17773;SDS011;9011;33.236;-97.118;2022-08-19T01:52:04;3.58;;;3.28;;
17773;SDS011;9011;33.236;-97.118;2022-08-19T01:54:34;4.35;;;3.95;;
17773;SDS011;9011;33.236;-97.118;2022-08-19T01:57:04;5.20;;;3.67;;
17773;SDS011;9011;33.236;-97.118;2022-08-19T01:59:35;4.38;;;3.97;;
17773;SDS011;9011;33.236;-97.118;2022-08-19T02:02:04;4.18;;;3.85;;
17773;SDS011;9011;33.236;-97.118;2022-08-19T02:04:34;5.93;;;4.10;;
17773;SDS011;9011;33.236;-97.118;2022-08-19T02:07:03;4.43;;;4.03;;
17773;SDS011;9011;33.236;-97.118;2022-08-19T02:09:33;4.53;;;3.70;;
17773;SDS011;9011;33.236;-97.118;2022-08-19T02:12:03;4.80;;;4.30;;
17773;SDS011;9011;33.236;-97.118;2022-08-19T02:14:33;4.43;;;4.00;;
17773;SDS011;9011;33.236;-97.118;2022-08-19T02:17:06;5.25;;;4.05;;
17773;SDS011;9011;33.236;-97.118;2022-08-19T02:19:35;4.97;;;4.47;;
17773;SDS011;9011;33.236;-97.118;2022-08-19T02:22:03;5.53;;;4.07;;
17773;SDS011;9011;33.236;-97.118;2022-08-19T02:24:32;4.75;;;4.32;;
17773;SDS011;9011;33.236;-97.118;2022-08-19T02:27:02;7.22;;;4.50;;
17773;SDS011;9011;33.236;-97.118;2022-08-19T02:29:31;4.70;;;4.30;;
17773;SDS011;9011;33.236;-97.118;2022-08-19T02:31:59;4.88;;;4.30;;
17773;SDS011;9011;33.236;-97.118;2022-08-19T02:34:28;4.63;;;4.20;;
17773;SDS011;9011;33.236;-97.118;2022-08-19T02:36:56;5.03;;;4.18;;
17773;SDS011;9011;33.236;-97.118;2022-08-19T02:39:27;4.82;;;4.32;;
17773;SDS011;9011;33.236;-97.118;2022-08-19T02:41:54;4.53;;;3.97;;
17773;SDS011;9011;33.236;-97.118;2022-08-19T02:44:26;4.35;;;4.05;;
17773;SDS011;9011;33.236;-97.118;2022-08-19T02:46:55;4.63;;;4.22;;
17773;SDS011;9011;33.236;-97.118;2022-08-19T02:49:24;5.07;;;4.60;;
17773;SDS011;9011;33.236;-97.118;2022-08-19T02:51:52;5.05;;;4.57;;
17773;SDS011;9011;33.236;-97.118;2022-08-19T02:54:20;5.15;;;4.50;;
17773;SDS011;9011;33.236;-97.118;2022-08-19T02:56:49;5.00;;;4.47;;
17773;SDS011;9011;33.236;-97.118;2022-08-19T02:59:17;5.10;;;4.60;;
17773;SDS011;9011;33.236;-97.118;2022-08-19T03:01:47;5.03;;;4.30;;
17773;SDS011;9011;33.236;-97.118;2022-08-19T03:04:15;4.75;;;4.35;;
17773;SDS011;9011;33.236;-97.118;2022-08-19T03:06:46;4.78;;;4.32;;
17773;SDS011;9011;33.236;-97.118;2022-08-19T03:09:15;5.18;;;4.57;;
17773;SDS011;9011;33.236;-97.118;2022-08-19T03:11:45;4.38;;;3.97;;
17773;SDS011;9011;33.236;-97.118;2022-08-19T03:14:14;5.50;;;4.60;;
17773;SDS011;9011;33.236;-97.118;2022-08-19T03:16:44;5.18;;;4.25;;
17773;SDS011;9011;33.236;-97.118;2022-08-19T03:19:16;4.72;;;4.32;;
17773;SDS011;9011;33.236;-97.118;2022-08-19T03:21:45;5.05;;;4.55;;
17773;SDS011;9011;33.236;-97.118;2022-08-19T03:24:13;5.88;;;4.90;;
17773;SDS011;9011;33.236;-97.118;2022-08-19T03:26:43;4.85;;;4.25;;
17773;SDS011;9011;33.236;-97.118;2022-08-19T03:29:13;5.75;;;5.22;;
17773;SDS011;9011;33.236;-97.118;2022-08-19T03:31:42;5.57;;;5.00;;
17773;SDS011;9011;33.236;-97.118;2022-08-19T03:34:13;5.40;;;4.90;;
17773;SDS011;9011;33.236;-97.118;2022-08-19T03:36:44;6.15;;;4.60;;
17773;SDS011;9011;33.236;-97.118;2022-08-19T03:39:13;5.45;;;4.38;;
17773;SDS011;9011;33.236;-97.118;2022-08-19T03:41:42;6.68;;;4.47;;
17773;SDS011;9011;33.236;-97.118;2022-08-19T03:44:12;5.35;;;4.22;;
17773;SDS011;9011;33.236;-97.118;2022-08-19T03:46:40;5.97;;;4.40;;
17773;SDS011;9011;33.236;-97.118;2022-08-19T03:49:09;5.03;;;4.53;;
17773;SDS011;9011;33.236;-97.118;2022-08-19T03:51:39;7.60;;;4.53;;
17773;SDS011;9011;33.236;-97.118;2022-08-19T03:54:08;6.43;;;4.82;;
17773;SDS011;9011;33.236;-97.118;2022-08-19T03:56:39;5.15;;;4.72;;
17773;SDS011;9011;33.236;-97.118;2022-08-19T03:59:10;4.82;;;4.43;;
17773;SDS011;9011;33.236;-97.118;2022-08-19T04:01:40;4.70;;;4.07;;
17773;SDS011;9011;33.236;-97.118;2022-08-19T04:04:08;5.00;;;4.50;;
17773;SDS011;9011;33.236;-97.118;2022-08-19T04:06:39;5.53;;;5.03;;
17773;SDS011;9011;33.236;-97.118;2022-08-19T04:09:08;5.15;;;4.75;;
17773;SDS011;9011;33.236;-97.118;2022-08-19T04:11:38;5.38;;;4.88;;
17773;SDS011;9011;33.236;-97.118;2022-08-19T04:14:08;5.47;;;4.97;;
17773;SDS011;9011;33.236;-97.118;2022-08-19T04:16:37;5.63;;;4.65;;
17773;SDS011;9011;33.236;-97.118;2022-08-19T04:19:05;4.63;;;4.22;;
17773;SDS011;9011;33.236;-97.118;2022-08-19T04:21:34;5.25;;;4.78;;
17773;SDS011;9011;33.236;-97.118;2022-08-19T04:24:04;5.78;;;4.90;;
17773;SDS011;9011;33.236;-97.118;2022-08-19T04:26:34;5.20;;;4.70;;
17773;SDS011;9011;33.236;-97.118;2022-08-19T04:29:05;5.32;;;4.35;;
17773;SDS011;9011;33.236;-97.118;2022-08-19T04:31:37;5.38;;;4.88;;
17773;SDS011;9011;33.236;-97.118;2022-08-19T04:34:07;5.53;;;4.93;;
17773;SDS011;9011;33.236;-97.118;2022-08-19T04:36:39;5.88;;;5.28;;
17773;SDS011;9011;33.236;-97.118;2022-08-19T04:39:12;5.63;;;5.13;;
17773;SDS011;9011;33.236;-97.118;2022-08-19T04:41:42;5.68;;;5.07;;
17773;SDS011;9011;33.236;-97.118;2022-08-19T04:44:29;5.13;;;4.63;;
17773;SDS011;9011;33.236;-97.118;2022-08-19T04:46:57;5.43;;;4.93;;
17773;SDS011;9011;33.236;-97.118;2022-08-19T04:49:26;5.47;;;4.95;;
17773;SDS011;9011;33.236;-97.118;2022-08-19T04:51:55;5.20;;;4.70;;
17773;SDS011;9011;33.236;-97.118;2022-08-19T04:54:25;5.72;;;5.22;;
17773;SDS011;9011;33.236;-97.118;2022-08-19T04:56:53;5.25;;;4.78;;
17773;SDS011;9011;33.236;-97.118;2022-08-19T04:59:21;6.68;;;4.82;;
17773;SDS011;9011;33.236;-97.118;2022-08-19T05:01:50;6.18;;;5.28;;
17773;SDS011;9011;33.236;-97.118;2022-08-19T05:04:19;6.07;;;5.40;;
17773;SDS011;9011;33.236;-97.118;2022-08-19T05:06:48;5.05;;;4.63;;
17773;SDS011;9011;33.236;-97.118;2022-08-19T05:09:18;5.50;;;5.00;;
17773;SDS011;9011;33.236;-97.118;2022-08-19T05:11:48;6.35;;;5.13;;
17773;SDS011;9011;33.236;-97.118;2022-08-19T05:14:18;6.00;;;5.35;;
17773;SDS011;9011;33.236;-97.118;2022-08-19T05:16:47;5.93;;;5.22;;
17773;SDS011;9011;33.236;-97.118;2022-08-19T05:19:15;5.05;;;4.55;;
17773;SDS011;9011;33.236;-97.118;2022-08-19T05:22:00;6.63;;;5.07;;
17773;SDS011;9011;33.236;-97.118;2022-08-19T05:24:45;4.47;;;4.07;;
17773;SDS011;9011;33.236;-97.118;2022-08-19T05:27:15;5.90;;;5.40;;
17773;SDS011;9011;33.236;-97.118;2022-08-19T05:29:44;6.15;;;5.28;;
17773;SDS011;9011;33.236;-97.118;2022-08-19T05:32:12;5.88;;;5.38;;
17773;SDS011;9011;33.236;-97.118;2022-08-19T05:34:41;5.38;;;4.88;;
17773;SDS011;9011;33.236;-97.118;2022-08-19T05:37:10;5.95;;;5.43;;
17773;SDS011;9011;33.236;-97.118;2022-08-19T05:39:38;5.93;;;5.35;;
17773;SDS011;9011;33.236;-97.118;2022-08-19T05:42:08;5.85;;;4.85;;
17773;SDS011;9011;33.236;-97.118;2022-08-19T05:44:40;6.80;;;6.20;;
17773;SDS011;9011;33.236;-97.118;2022-08-19T05:47:11;7.55;;;5.68;;
17773;SDS011;9011;33.236;-97.118;2022-08-19T05:49:41;6.43;;;5.82;;
17773;SDS011;9011;33.236;-97.118;2022-08-19T05:52:10;8.13;;;6.10;;
17773;SDS011;9011;33.236;-97.118;2022-08-19T05:54:40;6.97;;;6.00;;
17773;SDS011;9011;33.236;-97.118;2022-08-19T05:57:13;6.63;;;5.97;;
17773;SDS011;9011;33.236;-97.118;2022-08-19T05:59:43;5.50;;;5.00;;
17773;SDS011;9011;33.236;-97.118;2022-08-19T06:02:16;6.30;;;5.63;;
17773;SDS011;9011;33.236;-97.118;2022-08-19T06:04:45;6.00;;;5.40;;
17773;SDS011;9011;33.236;-97.118;2022-08-19T06:07:13;7.05;;;5.93;;
17773;SDS011;9011;33.236;-97.118;2022-08-19T06:09:42;8.32;;;6.43;;
17773;SDS011;9011;33.236;-97.118;2022-08-19T06:12:10;8.35;;;6.32;;
17773;SDS011;9011;33.236;-97.118;2022-08-19T06:14:38;6.40;;;5.80;;
17773;SDS011;9011;33.236;-97.118;2022-08-19T06:17:08;7.68;;;5.70;;
17773;SDS011;9011;33.236;-97.118;2022-08-19T06:19:38;6.38;;;5.78;;
17773;SDS011;9011;33.236;-97.118;2022-08-19T06:22:09;6.50;;;5.88;;
17773;SDS011;9011;33.236;-97.118;2022-08-19T06:24:38;6.13;;;5.53;;
17773;SDS011;9011;33.236;-97.118;2022-08-19T06:27:06;7.85;;;6.18;;
17773;SDS011;9011;33.236;-97.118;2022-08-19T06:29:35;8.52;;;6.47;;
17773;SDS011;9011;33.236;-97.118;2022-08-19T06:32:03;6.57;;;5.85;;
17773;SDS011;9011;33.236;-97.118;2022-08-19T06:34:34;6.88;;;5.95;;
17773;SDS011;9011;33.236;-97.118;2022-08-19T06:37:02;7.70;;;6.97;;
17773;SDS011;9011;33.236;-97.118;2022-08-19T06:39:31;7.63;;;6.88;;
17773;SDS011;9011;33.236;-97.118;2022-08-19T06:42:05;8.07;;;6.53;;
17773;SDS011;9011;33.236;-97.118;2022-08-19T06:44:37;8.20;;;6.72;;
17773;SDS011;9011;33.236;-97.118;2022-08-19T06:47:07;7.90;;;6.80;;
17773;SDS011;9011;33.236;-97.118;2022-08-19T06:49:38;7.22;;;6.53;;
17773;SDS011;9011;33.236;-97.118;2022-08-19T06:52:07;7.80;;;7.00;;
17773;SDS011;9011;33.236;-97.118;2022-08-19T06:54:37;7.70;;;6.90;;
17773;SDS011;9011;33.236;-97.118;2022-08-19T06:57:06;8.07;;;6.85;;
17773;SDS011;9011;33.236;-97.118;2022-08-19T06:59:40;7.78;;;6.82;;
17773;SDS011;9011;33.236;-97.118;2022-08-19T07:02:08;8.35;;;7.22;;
17773;SDS011;9011;33.236;-97.118;2022-08-19T07:04:37;8.45;;;7.55;;
17773;SDS011;9011;33.236;-97.118;2022-08-19T07:07:07;8.63;;;7.72;;
17773;SDS011;9011;33.236;-97.118;2022-08-19T07:09:38;7.95;;;7.15;;
17773;SDS011;9011;33.236;-97.118;2022-08-19T07:12:09;7.93;;;7.00;;
17773;SDS011;9011;33.236;-97.118;2022-08-19T07:14:42;8.40;;;7.60;;
17773;SDS011;9011;33.236;-97.118;2022-08-19T07:17:12;9.18;;;7.20;;
17773;SDS011;9011;33.236;-97.118;2022-08-19T07:19:42;8.15;;;7.35;;
17773;SDS011;9011;33.236;-97.118;2022-08-19T07:22:10;8.32;;;7.43;;
17773;SDS011;9011;33.236;-97.118;2022-08-19T07:24:40;7.72;;;6.95;;
17773;SDS011;9011;33.236;-97.118;2022-08-19T07:27:08;8.27;;;7.35;;
17773;SDS011;9011;33.236;-97.118;2022-08-19T07:29:38;8.30;;;7.50;;
17773;SDS011;9011;33.236;-97.118;2022-08-19T07:32:06;9.18;;;7.75;;
17773;SDS011;9011;33.236;-97.118;2022-08-19T07:34:36;8.68;;;7.45;;
17773;SDS011;9011;33.236;-97.118;2022-08-19T07:37:06;9.05;;;8.15;;
17773;SDS011;9011;33.236;-97.118;2022-08-19T07:39:35;7.40;;;6.63;;
17773;SDS011;9011;33.236;-97.118;2022-08-19T07:42:05;9.10;;;7.45;;
17773;SDS011;9011;33.236;-97.118;2022-08-19T07:44:36;8.50;;;7.55;;
17773;SDS011;9011;33.236;-97.118;2022-08-19T07:47:05;9.18;;;7.70;;
17773;SDS011;9011;33.236;-97.118;2022-08-19T07:49:33;9.35;;;8.13;;
17773;SDS011;9011;33.236;-97.118;2022-08-19T07:52:03;8.98;;;7.85;;
17773;SDS011;9011;33.236;-97.118;2022-08-19T07:54:36;8.52;;;7.60;;
17773;SDS011;9011;33.236;-97.118;2022-08-19T07:57:06;8.38;;;7.45;;
17773;SDS011;9011;33.236;-97.118;2022-08-19T07:59:35;10.10;;;8.10;;
17773;SDS011;9011;33.236;-97.118;2022-08-19T08:02:06;9.35;;;7.15;;
17773;SDS011;9011;33.236;-97.118;2022-08-19T08:04:35;11.77;;;8.00;;
17773;SDS011;9011;33.236;-97.118;2022-08-19T08:07:22;7.53;;;6.75;;
17773;SDS011;9011;33.236;-97.118;2022-08-19T08:10:07;8.52;;;7.25;;
17773;SDS011;9011;33.236;-97.118;2022-08-19T08:12:37;9.48;;;7.20;;
17773;SDS011;9011;33.236;-97.118;2022-08-19T08:15:08;9.07;;;8.18;;
17773;SDS011;9011;33.236;-97.118;2022-08-19T08:17:38;9.20;;;7.30;;
17773;SDS011;9011;33.236;-97.118;2022-08-19T08:20:07;8.70;;;7.80;;
17773;SDS011;9011;33.236;-97.118;2022-08-19T08:22:42;12.18;;;8.90;;
17773;SDS011;9011;33.236;-97.118;2022-08-19T08:25:28;9.38;;;7.40;;
17773;SDS011;9011;33.236;-97.118;2022-08-19T08:27:57;11.00;;;7.50;;
17773;SDS011;9011;33.236;-97.118;2022-08-19T08:30:26;8.80;;;7.90;;
17773;SDS011;9011;33.236;-97.118;2022-08-19T08:32:55;8.68;;;7.50;;
17773;SDS011;9011;33.236;-97.118;2022-08-19T08:35:24;8.65;;;7.65;;
17773;SDS011;9011;33.236;-97.118;2022-08-19T08:37:54;7.68;;;6.70;;
17773;SDS011;9011;33.236;-97.118;2022-08-19T08:40:24;7.78;;;6.97;;
17773;SDS011;9011;33.236;-97.118;2022-08-19T08:42:57;8.48;;;7.57;;
17773;SDS011;9011;33.236;-97.118;2022-08-19T08:45:30;9.63;;;7.90;;
17773;SDS011;9011;33.236;-97.118;2022-08-19T08:48:02;8.18;;;7.35;;
17773;SDS011;9011;33.236;-97.118;2022-08-19T08:50:37;8.65;;;7.18;;
17773;SDS011;9011;33.236;-97.118;2022-08-19T08:53:11;8.77;;;7.47;;
17773;SDS011;9011;33.236;-97.118;2022-08-19T08:55:43;8.30;;;7.47;;
17773;SDS011;9011;33.236;-97.118;2022-08-19T08:58:14;8.27;;;7.10;;
17773;SDS011;9011;33.236;-97.118;2022-08-19T09:00:51;8.90;;;7.88;;
17773;SDS011;9011;33.236;-97.118;2022-08-19T09:03:21;10.15;;;7.72;;
17773;SDS011;9011;33.236;-97.118;2022-08-19T09:05:54;9.82;;;7.63;;
17773;SDS011;9011;33.236;-97.118;2022-08-19T09:08:30;8.45;;;7.55;;
17773;SDS011;9011;33.236;-97.118;2022-08-19T09:11:06;9.35;;;8.35;;
17773;SDS011;9011;33.236;-97.118;2022-08-19T09:13:40;10.25;;;8.27;;
17773;SDS011;9011;33.236;-97.118;2022-08-19T09:16:16;8.65;;;7.60;;
17773;SDS011;9011;33.236;-97.118;2022-08-19T09:18:47;10.43;;;8.30;;
17773;SDS011;9011;33.236;-97.118;2022-08-19T09:21:18;9.15;;;8.25;;
17773;SDS011;9011;33.236;-97.118;2022-08-19T09:23:49;8.55;;;7.65;;
17773;SDS011;9011;33.236;-97.118;2022-08-19T09:26:18;9.68;;;8.10;;
17773;SDS011;9011;33.236;-97.118;2022-08-19T09:28:48;8.60;;;7.63;;
17773;SDS011;9011;33.236;-97.118;2022-08-19T09:31:19;8.73;;;7.82;;
17773;SDS011;9011;33.236;-97.118;2022-08-19T09:33:50;9.82;;;8.82;;
17773;SDS011;9011;33.236;-97.118;2022-08-19T09:36:22;13.27;;;9.15;;
17773;SDS011;9011;33.236;-97.118;2022-08-19T09:38:55;12.23;;;8.85;;
17773;SDS011;9011;33.236;-97.118;2022-08-19T09:41:25;11.38;;;8.82;;
17773;SDS011;9011;33.236;-97.118;2022-08-19T09:43:54;10.82;;;8.02;;
17773;SDS011;9011;33.236;-97.118;2022-08-19T09:46:24;12.13;;;9.50;;
17773;SDS011;9011;33.236;-97.118;2022-08-19T09:48:53;10.52;;;8.55;;
17773;SDS011;9011;33.236;-97.118;2022-08-19T09:51:25;10.18;;;9.07;;
17773;SDS011;9011;33.236;-97.118;2022-08-19T09:53:58;11.63;;;9.30;;
17773;SDS011;9011;33.236;-97.118;2022-08-19T09:56:27;11.85;;;9.40;;
17773;SDS011;9011;33.236;-97.118;2022-08-19T09:58:57;9.68;;;8.63;;
17773;SDS011;9011;33.236;-97.118;2022-08-19T10:01:26;11.55;;;8.85;;
17773;SDS011;9011;33.236;-97.118;2022-08-19T10:03:57;10.13;;;8.95;;
17773;SDS011;9011;33.236;-97.118;2022-08-19T10:06:27;11.25;;;9.30;;
17773;SDS011;9011;33.236;-97.118;2022-08-19T10:08:59;10.20;;;9.15;;
17773;SDS011;9011;33.236;-97.118;2022-08-19T10:11:29;11.82;;;10.25;;
17773;SDS011;9011;33.236;-97.118;2022-08-19T10:13:57;14.27;;;9.80;;
17773;SDS011;9011;33.236;-97.118;2022-08-19T10:16:26;12.63;;;10.63;;
17773;SDS011;9011;33.236;-97.118;2022-08-19T10:18:55;13.60;;;11.43;;
17773;SDS011;9011;33.236;-97.118;2022-08-19T10:21:26;11.95;;;9.70;;
17773;SDS011;9011;33.236;-97.118;2022-08-19T10:23:55;14.05;;;9.98;;
17773;SDS011;9011;33.236;-97.118;2022-08-19T10:26:28;11.88;;;9.07;;
17773;SDS011;9011;33.236;-97.118;2022-08-19T10:28:58;11.02;;;9.60;;
17773;SDS011;9011;33.236;-97.118;2022-08-19T10:31:30;12.20;;;9.13;;
17773;SDS011;9011;33.236;-97.118;2022-08-19T10:34:00;13.50;;;9.57;;
17773;SDS011;9011;33.236;-97.118;2022-08-19T10:36:29;11.13;;;9.35;;
17773;SDS011;9011;33.236;-97.118;2022-08-19T10:39:00;13.98;;;9.38;;
17773;SDS011;9011;33.236;-97.118;2022-08-19T10:41:33;14.55;;;9.98;;
17773;SDS011;9011;33.236;-97.118;2022-08-19T10:44:03;16.40;;;9.88;;
17773;SDS011;9011;33.236;-97.118;2022-08-19T10:46:36;15.32;;;9.85;;
17773;SDS011;9011;33.236;-97.118;2022-08-19T10:49:07;15.20;;;11.10;;
17773;SDS011;9011;33.236;-97.118;2022-08-19T10:51:37;16.92;;;10.85;;
17773;SDS011;9011;33.236;-97.118;2022-08-19T10:54:22;16.80;;;10.65;;
17773;SDS011;9011;33.236;-97.118;2022-08-19T10:57:15;16.20;;;10.45;;
17773;SDS011;9011;33.236;-97.118;2022-08-19T10:59:47;14.57;;;9.93;;
17773;SDS011;9011;33.236;-97.118;2022-08-19T11:02:16;11.93;;;10.00;;
17773;SDS011;9011;33.236;-97.118;2022-08-19T11:04:44;12.38;;;10.68;;
17773;SDS011;9011;33.236;-97.118;2022-08-19T11:07:15;15.90;;;11.88;;
17773;SDS011;9011;33.236;-97.118;2022-08-19T11:09:43;16.92;;;11.90;;
17773;SDS011;9011;33.236;-97.118;2022-08-19T11:12:16;16.65;;;12.18;;
17773;SDS011;9011;33.236;-97.118;2022-08-19T11:14:45;15.60;;;11.68;;
17773;SDS011;9011;33.236;-97.118;2022-08-19T11:17:15;17.40;;;12.00;;
17773;SDS011;9011;33.236;-97.118;2022-08-19T11:19:43;15.93;;;12.35;;
17773;SDS011;9011;33.236;-97.118;2022-08-19T11:22:13;17.00;;;11.68;;
17773;SDS011;9011;33.236;-97.118;2022-08-19T11:24:42;17.05;;;11.32;;
17773;SDS011;9011;33.236;-97.118;2022-08-19T11:27:10;14.45;;;11.20;;
17773;SDS011;9011;33.236;-97.118;2022-08-19T11:29:41;16.08;;;11.48;;
17773;SDS011;9011;33.236;-97.118;2022-08-19T11:32:09;14.95;;;11.63;;
17773;SDS011;9011;33.236;-97.118;2022-08-19T11:34:38;16.02;;;11.40;;
17773;SDS011;9011;33.236;-97.118;2022-08-19T11:37:10;18.17;;;12.15;;
17773;SDS011;9011;33.236;-97.118;2022-08-19T11:39:38;16.80;;;12.85;;
17773;SDS011;9011;33.236;-97.118;2022-08-19T11:42:06;16.98;;;12.60;;
17773;SDS011;9011;33.236;-97.118;2022-08-19T11:44:50;17.58;;;12.18;;
17773;SDS011;9011;33.236;-97.118;2022-08-19T11:47:18;17.45;;;11.73;;
17773;SDS011;9011;33.236;-97.118;2022-08-19T11:49:47;19.50;;;13.80;;
17773;SDS011;9011;33.236;-97.118;2022-08-19T11:52:15;20.23;;;14.10;;
17773;SDS011;9011;33.236;-97.118;2022-08-19T11:54:45;21.77;;;14.60;;
17773;SDS011;9011;33.236;-97.118;2022-08-19T11:57:13;21.65;;;15.00;;
17773;SDS011;9011;33.236;-97.118;2022-08-19T11:59:46;18.65;;;14.55;;
17773;SDS011;9011;33.236;-97.118;2022-08-19T12:02:19;20.33;;;14.35;;
17773;SDS011;9011;33.236;-97.118;2022-08-19T12:04:49;19.75;;;13.23;;
17773;SDS011;9011;33.236;-97.118;2022-08-19T12:07:28;22.25;;;14.70;;
17773;SDS011;9011;33.236;-97.118;2022-08-19T12:09:59;21.60;;;15.07;;
17773;SDS011;9011;33.236;-97.118;2022-08-19T12:12:30;24.83;;;15.95;;
17773;SDS011;9011;33.236;-97.118;2022-08-19T12:15:01;21.77;;;15.27;;
17773;SDS011;9011;33.236;-97.118;2022-08-19T12:17:32;23.70;;;16.05;;
17773;SDS011;9011;33.236;-97.118;2022-08-19T12:20:00;26.08;;;15.70;;
17773;SDS011;9011;33.236;-97.118;2022-08-19T12:22:28;24.73;;;16.02;;
17773;SDS011;9011;33.236;-97.118;2022-08-19T12:24:57;23.00;;;15.70;;
17773;SDS011;9011;33.236;-97.118;2022-08-19T12:27:26;26.17;;;15.57;;
17773;SDS011;9011;33.236;-97.118;2022-08-19T12:29:54;30.75;;;17.02;;
17773;SDS011;9011;33.236;-97.118;2022-08-19T12:32:22;30.23;;;17.98;;
17773;SDS011;9011;33.236;-97.118;2022-08-19T12:34:53;30.17;;;17.52;;
17773;SDS011;9011;33.236;-97.118;2022-08-19T12:37:22;31.35;;;18.05;;
17773;SDS011;9011;33.236;-97.118;2022-08-19T12:39:50;29.52;;;17.65;;
17773;SDS011;9011;33.236;-97.118;2022-08-19T12:42:18;25.60;;;16.40;;
17773;SDS011;9011;33.236;-97.118;2022-08-19T12:44:47;31.20;;;18.80;;
17773;SDS011;9011;33.236;-97.118;2022-08-19T12:47:17;30.20;;;17.35;;
17773;SDS011;9011;33.236;-97.118;2022-08-19T12:49:45;26.60;;;16.88;;
17773;SDS011;9011;33.236;-97.118;2022-08-19T12:52:16;28.08;;;17.35;;
17773;SDS011;9011;33.236;-97.118;2022-08-19T12:54:46;28.63;;;17.50;;
17773;SDS011;9011;33.236;-97.118;2022-08-19T12:57:15;31.98;;;18.55;;
17773;SDS011;9011;33.236;-97.118;2022-08-19T12:59:43;36.95;;;19.13;;
17773;SDS011;9011;33.236;-97.118;2022-08-19T13:02:11;34.03;;;18.67;;
17773;SDS011;9011;33.236;-97.118;2022-08-19T13:04:39;36.63;;;18.33;;
17773;SDS011;9011;33.236;-97.118;2022-08-19T13:07:08;36.25;;;20.17;;
17773;SDS011;9011;33.236;-97.118;2022-08-19T13:09:37;37.20;;;19.27;;
17773;SDS011;9011;33.236;-97.118;2022-08-19T13:12:08;32.72;;;19.13;;
17773;SDS011;9011;33.236;-97.118;2022-08-19T13:14:38;38.08;;;19.38;;
17773;SDS011;9011;33.236;-97.118;2022-08-19T13:17:07;39.00;;;24.92;;
17773;SDS011;9011;33.236;-97.118;2022-08-19T13:19:37;34.70;;;18.95;;
17773;SDS011;9011;33.236;-97.118;2022-08-19T13:22:05;34.25;;;18.83;;
17773;SDS011;9011;33.236;-97.118;2022-08-19T13:24:33;32.47;;;19.08;;
17773;SDS011;9011;33.236;-97.118;2022-08-19T13:27:04;31.90;;;16.58;;
17773;SDS011;9011;33.236;-97.118;2022-08-19T13:29:32;30.92;;;17.20;;
17773;SDS011;9011;33.236;-97.118;2022-08-19T13:32:18;29.67;;;17.27;;
17773;SDS011;9011;33.236;-97.118;2022-08-19T13:35:03;29.50;;;16.30;;
17773;SDS011;9011;33.236;-97.118;2022-08-19T13:37:32;29.58;;;16.85;;
17773;SDS011;9011;33.236;-97.118;2022-08-19T13:40:10;28.13;;;17.17;;
17773;SDS011;9011;33.236;-97.118;2022-08-19T13:42:43;27.85;;;16.25;;
17773;SDS011;9011;33.236;-97.118;2022-08-19T13:45:12;28.83;;;16.90;;
17773;SDS011;9011;33.236;-97.118;2022-08-19T13:47:44;28.00;;;17.17;;
17773;SDS011;9011;33.236;-97.118;2022-08-19T13:50:14;28.48;;;16.20;;
17773;SDS011;9011;33.236;-97.118;2022-08-19T13:52:44;26.42;;;16.02;;
17773;SDS011;9011;33.236;-97.118;2022-08-19T13:55:14;26.92;;;16.35;;
17773;SDS011;9011;33.236;-97.118;2022-08-19T13:57:44;27.73;;;15.15;;
17773;SDS011;9011;33.236;-97.118;2022-08-19T14:00:15;25.23;;;14.98;;
17773;SDS011;9011;33.236;-97.118;2022-08-19T14:02:44;22.52;;;15.35;;
17773;SDS011;9011;33.236;-97.118;2022-08-19T14:05:14;24.63;;;15.30;;
17773;SDS011;9011;33.236;-97.118;2022-08-19T14:07:43;22.13;;;14.70;;
17773;SDS011;9011;33.236;-97.118;2022-08-19T14:10:11;23.55;;;13.80;;
17773;SDS011;9011;33.236;-97.118;2022-08-19T14:12:40;21.38;;;12.68;;
17773;SDS011;9011;33.236;-97.118;2022-08-19T14:15:11;18.77;;;12.80;;
17773;SDS011;9011;33.236;-97.118;2022-08-19T14:17:39;21.83;;;13.23;;
17773;SDS011;9011;33.236;-97.118;2022-08-19T14:20:10;22.00;;;13.38;;
17773;SDS011;9011;33.236;-97.118;2022-08-19T14:22:40;25.48;;;15.32;;
17773;SDS011;9011;33.236;-97.118;2022-08-19T14:25:11;24.02;;;14.95;;
17773;SDS011;9011;33.236;-97.118;2022-08-19T14:27:41;24.38;;;14.88;;
17773;SDS011;9011;33.236;-97.118;2022-08-19T14:30:13;21.92;;;13.70;;
17773;SDS011;9011;33.236;-97.118;2022-08-19T14:32:43;20.02;;;12.52;;
17773;SDS011;9011;33.236;-97.118;2022-08-19T14:35:12;25.63;;;15.50;;
17773;SDS011;9011;33.236;-97.118;2022-08-19T14:37:41;25.08;;;14.75;;
17773;SDS011;9011;33.236;-97.118;2022-08-19T14:40:11;21.13;;;13.57;;
17773;SDS011;9011;33.236;-97.118;2022-08-19T14:42:41;24.15;;;14.88;;
17773;SDS011;9011;33.236;-97.118;2022-08-19T14:45:11;21.52;;;13.80;;